sensor_id;sensor_type;location;lat;lon;timestamp;temperature;humidity
4002;DHT22;2015;48.670;9.060;2022-07-17T00:01:13;15.50;99.90
4002;DHT22;2015;48.670;9.060;2022-07-17T00:03:45;15.40;99.90
4002;DHT22;2015;48.670;9.060;2022-07-17T00:06:17;15.40;99.90
4002;DHT22;2015;48.670;9.060;2022-07-17T00:08:50;15.30;99.90
4002;DHT22;2015;48.670;9.060;2022-07-17T00:11:22;15.20;99.90
4002;DHT22;2015;48.670;9.060;2022-07-17T00:13:53;15.20;99.90
4002;DHT22;2015;48.670;9.060;2022-07-17T00:16:26;15.20;99.90
4002;DHT22;2015;48.670;9.060;2022-07-17T00:18:58;15.20;99.90
4002;DHT22;2015;48.670;9.060;2022-07-17T00:21:30;15.20;99.90
4002;DHT22;2015;48.670;9.060;2022-07-17T00:24:02;15.10;99.90
4002;DHT22;2015;48.670;9.060;2022-07-17T00:26:34;15.10;99.90
4002;DHT22;2015;48.670;9.060;2022-07-17T00:29:05;15.10;99.90
4002;DHT22;2015;48.670;9.060;2022-07-17T00:31:37;15.10;99.90
4002;DHT22;2015;48.670;9.060;2022-07-17T00:34:09;15.00;99.90
4002;DHT22;2015;48.670;9.060;2022-07-17T00:36:41;15.00;99.90
4002;DHT22;2015;48.670;9.060;2022-07-17T00:39:14;15.00;99.90
4002;DHT22;2015;48.670;9.060;2022-07-17T00:41:46;15.00;99.90
4002;DHT22;2015;48.670;9.060;2022-07-17T00:44:17;14.90;99.90
4002;DHT22;2015;48.670;9.060;2022-07-17T00:46:49;14.80;99.90
4002;DHT22;2015;48.670;9.060;2022-07-17T00:49:21;14.80;99.90
4002;DHT22;2015;48.670;9.060;2022-07-17T00:51:53;14.80;99.90
4002;DHT22;2015;48.670;9.060;2022-07-17T00:54:25;14.80;99.90
4002;DHT22;2015;48.670;9.060;2022-07-17T00:56:58;14.80;99.90
4002;DHT22;2015;48.670;9.060;2022-07-17T00:59:32;14.80;99.90
4002;DHT22;2015;48.670;9.060;2022-07-17T01:02:06;14.80;99.90
4002;DHT22;2015;48.670;9.060;2022-07-17T01:04:38;14.80;99.90
4002;DHT22;2015;48.670;9.060;2022-07-17T01:07:10;14.80;99.90
4002;DHT22;2015;48.670;9.060;2022-07-17T01:09:42;14.80;99.90
4002;DHT22;2015;48.670;9.060;2022-07-17T01:12:14;14.70;99.90
4002;DHT22;2015;48.670;9.060;2022-07-17T01:14:46;14.70;99.90
4002;DHT22;2015;48.670;9.060;2022-07-17T01:17:18;14.70;99.90
4002;DHT22;2015;48.670;9.060;2022-07-17T01:19:51;14.60;99.90
4002;DHT22;2015;48.670;9.060;2022-07-17T01:22:23;14.60;99.90
4002;DHT22;2015;48.670;9.060;2022-07-17T01:24:55;14.60;99.90
4002;DHT22;2015;48.670;9.060;2022-07-17T01:27:27;14.50;99.90
4002;DHT22;2015;48.670;9.060;2022-07-17T01:29:58;14.50;99.90
4002;DHT22;2015;48.670;9.060;2022-07-17T01:32:35;14.50;99.90
4002;DHT22;2015;48.670;9.060;2022-07-17T01:35:09;14.50;99.90
4002;DHT22;2015;48.670;9.060;2022-07-17T01:37:42;14.50;99.90
4002;DHT22;2015;48.670;9.060;2022-07-17T01:40:16;14.40;99.90
4002;DHT22;2015;48.670;9.060;2022-07-17T01:42:49;14.40;99.90
4002;DHT22;2015;48.670;9.060;2022-07-17T01:45:21;14.40;99.90
4002;DHT22;2015;48.670;9.060;2022-07-17T01:47:53;14.40;99.90
4002;DHT22;2015;48.670;9.060;2022-07-17T01:50:25;14.40;99.90
4002;DHT22;2015;48.670;9.060;2022-07-17T01:52:57;14.40;99.90
4002;DHT22;2015;48.670;9.060;2022-07-17T01:55:28;14.40;99.90
4002;DHT22;2015;48.670;9.060;2022-07-17T01:58:00;14.40;99.90
4002;DHT22;2015;48.670;9.060;2022-07-17T02:00:32;14.40;99.90
4002;DHT22;2015;48.670;9.060;2022-07-17T02:03:04;14.40;99.90
4002;DHT22;2015;48.670;9.060;2022-07-17T02:05:36;14.40;99.90
4002;DHT22;2015;48.670;9.060;2022-07-17T02:08:08;14.30;99.90
4002;DHT22;2015;48.670;9.060;2022-07-17T02:10:40;14.30;99.90
4002;DHT22;2015;48.670;9.060;2022-07-17T02:13:12;14.20;99.90
4002;DHT22;2015;48.670;9.060;2022-07-17T02:15:44;14.10;99.90
4002;DHT22;2015;48.670;9.060;2022-07-17T02:18:16;14.20;99.90
4002;DHT22;2015;48.670;9.060;2022-07-17T02:20:47;14.10;99.90
4002;DHT22;2015;48.670;9.060;2022-07-17T02:23:21;14.10;99.90
4002;DHT22;2015;48.670;9.060;2022-07-17T02:25:53;14.00;99.90
4002;DHT22;2015;48.670;9.060;2022-07-17T02:28:25;13.90;99.90
4002;DHT22;2015;48.670;9.060;2022-07-17T02:30:56;13.80;99.90
4002;DHT22;2015;48.670;9.060;2022-07-17T02:33:29;13.80;99.90
4002;DHT22;2015;48.670;9.060;2022-07-17T02:36:00;13.70;99.90
4002;DHT22;2015;48.670;9.060;2022-07-17T02:38:33;13.70;99.90
4002;DHT22;2015;48.670;9.060;2022-07-17T02:41:05;13.70;99.90
4002;DHT22;2015;48.670;9.060;2022-07-17T02:43:37;13.70;99.90
4002;DHT22;2015;48.670;9.060;2022-07-17T02:46:09;13.70;99.90
4002;DHT22;2015;48.670;9.060;2022-07-17T02:48:41;13.70;99.90
4002;DHT22;2015;48.670;9.060;2022-07-17T02:51:13;13.70;99.90
4002;DHT22;2015;48.670;9.060;2022-07-17T02:53:45;13.70;99.90
4002;DHT22;2015;48.670;9.060;2022-07-17T02:56:17;13.70;99.90
4002;DHT22;2015;48.670;9.060;2022-07-17T02:58:49;13.60;99.90
4002;DHT22;2015;48.670;9.060;2022-07-17T03:01:20;13.60;99.90
4002;DHT22;2015;48.670;9.060;2022-07-17T03:03:52;13.60;99.90
4002;DHT22;2015;48.670;9.060;2022-07-17T03:06:24;13.60;99.90
4002;DHT22;2015;48.670;9.060;2022-07-17T03:08:57;13.50;99.90
4002;DHT22;2015;48.670;9.060;2022-07-17T03:11:28;13.60;99.90
4002;DHT22;2015;48.670;9.060;2022-07-17T03:14:01;13.60;99.90
4002;DHT22;2015;48.670;9.060;2022-07-17T03:16:33;13.50;99.90
4002;DHT22;2015;48.670;9.060;2022-07-17T03:19:04;13.50;99.90
4002;DHT22;2015;48.670;9.060;2022-07-17T03:21:36;13.50;99.90
4002;DHT22;2015;48.670;9.060;2022-07-17T03:24:08;13.50;99.90
4002;DHT22;2015;48.670;9.060;2022-07-17T03:26:40;13.60;99.90
4002;DHT22;2015;48.670;9.060;2022-07-17T03:29:12;13.50;99.90
4002;DHT22;2015;48.670;9.060;2022-07-17T03:31:45;13.50;99.90
4002;DHT22;2015;48.670;9.060;2022-07-17T03:34:17;13.40;99.90
4002;DHT22;2015;48.670;9.060;2022-07-17T03:36:49;13.40;99.90
4002;DHT22;2015;48.670;9.060;2022-07-17T03:39:21;13.30;99.90
4002;DHT22;2015;48.670;9.060;2022-07-17T03:41:53;13.30;99.90
4002;DHT22;2015;48.670;9.060;2022-07-17T03:44:24;13.20;99.90
4002;DHT22;2015;48.670;9.060;2022-07-17T03:46:56;13.20;99.90
4002;DHT22;2015;48.670;9.060;2022-07-17T03:49:28;13.20;99.90
4002;DHT22;2015;48.670;9.060;2022-07-17T03:52:00;13.20;99.90
4002;DHT22;2015;48.670;9.060;2022-07-17T03:54:32;13.20;99.90
4002;DHT22;2015;48.670;9.060;2022-07-17T03:57:03;13.20;99.90
4002;DHT22;2015;48.670;9.060;2022-07-17T03:59:35;13.20;99.90
4002;DHT22;2015;48.670;9.060;2022-07-17T04:02:07;13.20;99.90
4002;DHT22;2015;48.670;9.060;2022-07-17T04:04:39;13.20;99.90
4002;DHT22;2015;48.670;9.060;2022-07-17T04:07:11;13.20;99.90
4002;DHT22;2015;48.670;9.060;2022-07-17T04:09:59;13.20;99.90
4002;DHT22;2015;48.670;9.060;2022-07-17T04:12:31;13.20;99.90
4002;DHT22;2015;48.670;9.060;2022-07-17T04:15:04;13.20;99.90
4002;DHT22;2015;48.670;9.060;2022-07-17T04:17:36;13.20;99.90
4002;DHT22;2015;48.670;9.060;2022-07-17T04:20:08;13.20;99.90
4002;DHT22;2015;48.670;9.060;2022-07-17T04:22:40;13.30;99.90
4002;DHT22;2015;48.670;9.060;2022-07-17T04:25:12;13.20;99.90
4002;DHT22;2015;48.670;9.060;2022-07-17T04:27:43;13.20;99.90
4002;DHT22;2015;48.670;9.060;2022-07-17T04:30:15;13.20;99.90
4002;DHT22;2015;48.670;9.060;2022-07-17T04:32:47;13.20;99.90
4002;DHT22;2015;48.670;9.060;2022-07-17T04:35:19;13.20;99.90
4002;DHT22;2015;48.670;9.060;2022-07-17T04:37:51;13.20;99.90
4002;DHT22;2015;48.670;9.060;2022-07-17T04:40:23;13.30;99.90
4002;DHT22;2015;48.670;9.060;2022-07-17T04:42:55;13.30;99.90
4002;DHT22;2015;48.670;9.060;2022-07-17T04:45:27;13.40;99.90
4002;DHT22;2015;48.670;9.060;2022-07-17T04:47:59;13.40;99.90
4002;DHT22;2015;48.670;9.060;2022-07-17T04:50:31;13.50;99.90
4002;DHT22;2015;48.670;9.060;2022-07-17T04:53:03;13.50;99.90
4002;DHT22;2015;48.670;9.060;2022-07-17T04:55:35;13.60;99.90
4002;DHT22;2015;48.670;9.060;2022-07-17T04:58:08;13.70;99.90
4002;DHT22;2015;48.670;9.060;2022-07-17T05:00:40;13.80;99.90
4002;DHT22;2015;48.670;9.060;2022-07-17T05:03:12;13.80;99.90
4002;DHT22;2015;48.670;9.060;2022-07-17T05:05:44;13.90;99.90
4002;DHT22;2015;48.670;9.060;2022-07-17T05:08:16;13.90;99.90
4002;DHT22;2015;48.670;9.060;2022-07-17T05:10:48;14.00;99.90
4002;DHT22;2015;48.670;9.060;2022-07-17T05:13:20;14.10;99.90
4002;DHT22;2015;48.670;9.060;2022-07-17T05:15:52;14.20;99.90
4002;DHT22;2015;48.670;9.060;2022-07-17T05:18:24;14.30;99.90
4002;DHT22;2015;48.670;9.060;2022-07-17T05:20:56;14.40;99.90
4002;DHT22;2015;48.670;9.060;2022-07-17T05:23:28;14.60;99.90
4002;DHT22;2015;48.670;9.060;2022-07-17T05:26:00;14.80;99.90
4002;DHT22;2015;48.670;9.060;2022-07-17T05:28:32;15.00;99.90
4002;DHT22;2015;48.670;9.060;2022-07-17T05:31:09;15.10;99.90
4002;DHT22;2015;48.670;9.060;2022-07-17T05:33:40;15.30;99.90
4002;DHT22;2015;48.670;9.060;2022-07-17T05:36:12;15.30;99.90
4002;DHT22;2015;48.670;9.060;2022-07-17T05:38:44;15.40;99.90
4002;DHT22;2015;48.670;9.060;2022-07-17T05:41:16;15.50;99.90
4002;DHT22;2015;48.670;9.060;2022-07-17T05:43:48;15.50;99.90
4002;DHT22;2015;48.670;9.060;2022-07-17T05:46:19;15.60;99.90
4002;DHT22;2015;48.670;9.060;2022-07-17T05:48:51;15.70;99.90
4002;DHT22;2015;48.670;9.060;2022-07-17T05:51:23;15.80;99.90
4002;DHT22;2015;48.670;9.060;2022-07-17T05:53:56;15.90;99.90
4002;DHT22;2015;48.670;9.060;2022-07-17T05:56:27;16.00;99.90
4002;DHT22;2015;48.670;9.060;2022-07-17T05:58:59;16.10;99.90
4002;DHT22;2015;48.670;9.060;2022-07-17T06:01:31;16.20;99.90
4002;DHT22;2015;48.670;9.060;2022-07-17T06:04:03;16.30;99.90
4002;DHT22;2015;48.670;9.060;2022-07-17T06:06:36;16.40;99.90
4002;DHT22;2015;48.670;9.060;2022-07-17T06:09:08;16.50;99.90
4002;DHT22;2015;48.670;9.060;2022-07-17T06:11:39;16.60;99.90
4002;DHT22;2015;48.670;9.060;2022-07-17T06:14:12;16.70;99.90
4002;DHT22;2015;48.670;9.060;2022-07-17T06:16:44;16.80;99.90
4002;DHT22;2015;48.670;9.060;2022-07-17T06:19:16;16.80;99.90
4002;DHT22;2015;48.670;9.060;2022-07-17T06:21:47;16.90;99.90
4002;DHT22;2015;48.670;9.060;2022-07-17T06:24:19;17.00;99.90
4002;DHT22;2015;48.670;9.060;2022-07-17T06:26:51;17.10;99.90
4002;DHT22;2015;48.670;9.060;2022-07-17T06:29:23;17.20;99.90
4002;DHT22;2015;48.670;9.060;2022-07-17T06:31:55;17.30;99.90
4002;DHT22;2015;48.670;9.060;2022-07-17T06:34:26;17.40;99.90
4002;DHT22;2015;48.670;9.060;2022-07-17T06:36:58;17.50;99.90
4002;DHT22;2015;48.670;9.060;2022-07-17T06:39:30;17.60;99.90
4002;DHT22;2015;48.670;9.060;2022-07-17T06:42:02;17.70;99.90
4002;DHT22;2015;48.670;9.060;2022-07-17T06:44:34;17.80;99.90
4002;DHT22;2015;48.670;9.060;2022-07-17T06:47:06;18.00;99.90
4002;DHT22;2015;48.670;9.060;2022-07-17T06:49:38;18.10;99.90
4002;DHT22;2015;48.670;9.060;2022-07-17T06:52:10;18.20;99.90
4002;DHT22;2015;48.670;9.060;2022-07-17T06:54:42;18.20;99.90
4002;DHT22;2015;48.670;9.060;2022-07-17T06:57:14;18.30;99.90
4002;DHT22;2015;48.670;9.060;2022-07-17T06:59:46;18.50;99.90
4002;DHT22;2015;48.670;9.060;2022-07-17T07:02:17;18.60;99.60
4002;DHT22;2015;48.670;9.060;2022-07-17T07:04:49;18.60;99.30
4002;DHT22;2015;48.670;9.060;2022-07-17T07:07:21;18.70;99.50
4002;DHT22;2015;48.670;9.060;2022-07-17T07:09:53;18.80;99.90
4002;DHT22;2015;48.670;9.060;2022-07-17T07:12:25;19.00;99.90
4002;DHT22;2015;48.670;9.060;2022-07-17T07:14:56;19.00;99.30
4002;DHT22;2015;48.670;9.060;2022-07-17T07:17:28;19.10;99.10
4002;DHT22;2015;48.670;9.060;2022-07-17T07:20:02;19.20;98.00
4002;DHT22;2015;48.670;9.060;2022-07-17T07:22:35;19.20;98.20
4002;DHT22;2015;48.670;9.060;2022-07-17T07:25:09;19.40;98.40
4002;DHT22;2015;48.670;9.060;2022-07-17T07:27:41;19.50;98.90
4002;DHT22;2015;48.670;9.060;2022-07-17T07:30:13;19.60;98.40
4002;DHT22;2015;48.670;9.060;2022-07-17T07:32:45;19.70;97.80
4002;DHT22;2015;48.670;9.060;2022-07-17T07:35:17;19.80;97.60
4002;DHT22;2015;48.670;9.060;2022-07-17T07:37:49;19.90;97.30
4002;DHT22;2015;48.670;9.060;2022-07-17T07:40:20;19.90;97.00
4002;DHT22;2015;48.670;9.060;2022-07-17T07:42:52;20.00;96.80
4002;DHT22;2015;48.670;9.060;2022-07-17T07:45:24;20.00;96.90
4002;DHT22;2015;48.670;9.060;2022-07-17T07:47:56;20.30;97.60
4002;DHT22;2015;48.670;9.060;2022-07-17T07:50:28;20.30;96.40
4002;DHT22;2015;48.670;9.060;2022-07-17T07:53:00;20.40;97.00
4002;DHT22;2015;48.670;9.060;2022-07-17T07:55:32;20.60;96.20
4002;DHT22;2015;48.670;9.060;2022-07-17T07:58:06;20.80;95.20
4002;DHT22;2015;48.670;9.060;2022-07-17T08:00:39;20.90;95.40
4002;DHT22;2015;48.670;9.060;2022-07-17T08:03:13;21.00;94.60
4002;DHT22;2015;48.670;9.060;2022-07-17T08:05:45;21.00;94.80
4002;DHT22;2015;48.670;9.060;2022-07-17T08:08:17;21.10;94.00
4002;DHT22;2015;48.670;9.060;2022-07-17T08:10:48;21.30;94.40
4002;DHT22;2015;48.670;9.060;2022-07-17T08:13:20;21.30;93.40
4002;DHT22;2015;48.670;9.060;2022-07-17T08:15:52;21.30;93.10
4002;DHT22;2015;48.670;9.060;2022-07-17T08:18:25;21.40;93.90
4002;DHT22;2015;48.670;9.060;2022-07-17T08:20:57;21.40;92.70
4002;DHT22;2015;48.670;9.060;2022-07-17T08:23:29;21.60;92.40
4002;DHT22;2015;48.670;9.060;2022-07-17T08:26:02;21.70;92.00
4002;DHT22;2015;48.670;9.060;2022-07-17T08:28:41;21.80;92.40
4002;DHT22;2015;48.670;9.060;2022-07-17T08:31:13;22.00;92.10
4002;DHT22;2015;48.670;9.060;2022-07-17T08:33:45;22.20;92.30
4002;DHT22;2015;48.670;9.060;2022-07-17T08:36:16;22.30;91.20
4002;DHT22;2015;48.670;9.060;2022-07-17T08:38:48;22.50;90.60
4002;DHT22;2015;48.670;9.060;2022-07-17T08:41:20;22.70;90.00
4002;DHT22;2015;48.670;9.060;2022-07-17T08:43:54;22.90;90.20
4002;DHT22;2015;48.670;9.060;2022-07-17T08:46:26;23.60;88.30
4002;DHT22;2015;48.670;9.060;2022-07-17T08:49:00;24.30;85.50
4002;DHT22;2015;48.670;9.060;2022-07-17T08:51:34;25.20;81.90
4002;DHT22;2015;48.670;9.060;2022-07-17T08:54:06;26.30;80.20
4002;DHT22;2015;48.670;9.060;2022-07-17T08:56:37;26.90;79.30
4002;DHT22;2015;48.670;9.060;2022-07-17T08:59:10;28.00;76.30
4002;DHT22;2015;48.670;9.060;2022-07-17T09:01:42;28.50;73.30
4002;DHT22;2015;48.670;9.060;2022-07-17T09:04:13;29.30;70.40
4002;DHT22;2015;48.670;9.060;2022-07-17T09:06:45;30.00;69.50
4002;DHT22;2015;48.670;9.060;2022-07-17T09:09:17;30.00;66.00
4002;DHT22;2015;48.670;9.060;2022-07-17T09:11:51;30.00;65.70
4002;DHT22;2015;48.670;9.060;2022-07-17T09:14:23;30.80;63.30
4002;DHT22;2015;48.670;9.060;2022-07-17T09:16:58;31.00;61.50
4002;DHT22;2015;48.670;9.060;2022-07-17T09:19:42;31.10;62.10
4002;DHT22;2015;48.670;9.060;2022-07-17T09:22:24;31.50;61.90
4002;DHT22;2015;48.670;9.060;2022-07-17T09:24:58;31.70;60.20
4002;DHT22;2015;48.670;9.060;2022-07-17T09:27:32;31.80;60.90
4002;DHT22;2015;48.670;9.060;2022-07-17T09:30:07;32.50;59.50
4002;DHT22;2015;48.670;9.060;2022-07-17T09:32:41;32.80;57.80
4002;DHT22;2015;48.670;9.060;2022-07-17T09:35:13;32.30;58.50
4002;DHT22;2015;48.670;9.060;2022-07-17T09:37:45;32.40;58.20
4002;DHT22;2015;48.670;9.060;2022-07-17T09:40:17;32.80;57.90
4002;DHT22;2015;48.670;9.060;2022-07-17T09:43:08;32.90;57.00
4002;DHT22;2015;48.670;9.060;2022-07-17T09:45:40;33.00;55.60
4002;DHT22;2015;48.670;9.060;2022-07-17T09:48:14;32.50;55.50
4002;DHT22;2015;48.670;9.060;2022-07-17T09:50:46;32.50;55.00
4002;DHT22;2015;48.670;9.060;2022-07-17T09:53:18;33.20;55.10
4002;DHT22;2015;48.670;9.060;2022-07-17T09:55:51;33.80;54.30
4002;DHT22;2015;48.670;9.060;2022-07-17T09:58:26;33.80;54.60
4002;DHT22;2015;48.670;9.060;2022-07-17T10:00:58;33.60;53.90
4002;DHT22;2015;48.670;9.060;2022-07-17T10:03:31;33.60;53.70
4002;DHT22;2015;48.670;9.060;2022-07-17T10:06:03;34.20;53.20
4002;DHT22;2015;48.670;9.060;2022-07-17T10:08:37;34.40;52.20
4002;DHT22;2015;48.670;9.060;2022-07-17T10:11:10;34.50;51.80
4002;DHT22;2015;48.670;9.060;2022-07-17T10:13:44;34.50;49.60
4002;DHT22;2015;48.670;9.060;2022-07-17T10:16:28;34.40;50.30
4002;DHT22;2015;48.670;9.060;2022-07-17T10:19:01;33.80;48.20
4002;DHT22;2015;48.670;9.060;2022-07-17T10:21:34;34.10;47.30
4002;DHT22;2015;48.670;9.060;2022-07-17T10:24:08;34.20;49.10
4002;DHT22;2015;48.670;9.060;2022-07-17T10:26:43;34.20;49.80
4002;DHT22;2015;48.670;9.060;2022-07-17T10:29:37;33.90;49.90
4002;DHT22;2015;48.670;9.060;2022-07-17T10:32:18;34.40;49.50
4002;DHT22;2015;48.670;9.060;2022-07-17T10:35:02;34.20;48.50
4002;DHT22;2015;48.670;9.060;2022-07-17T10:42:58;34.00;48.00
4002;DHT22;2015;48.670;9.060;2022-07-17T10:48:18;34.30;49.00
4002;DHT22;2015;48.670;9.060;2022-07-17T10:50:56;34.40;48.10
4002;DHT22;2015;48.670;9.060;2022-07-17T10:53:32;34.50;47.40
4002;DHT22;2015;48.670;9.060;2022-07-17T10:56:08;35.20;46.20
4002;DHT22;2015;48.670;9.060;2022-07-17T10:58:41;35.60;43.60
4002;DHT22;2015;48.670;9.060;2022-07-17T11:01:17;36.00;43.20
4002;DHT22;2015;48.670;9.060;2022-07-17T11:03:54;35.70;44.10
4002;DHT22;2015;48.670;9.060;2022-07-17T11:06:32;35.20;44.40
4002;DHT22;2015;48.670;9.060;2022-07-17T11:09:05;35.00;44.80
4002;DHT22;2015;48.670;9.060;2022-07-17T11:22:04;34.30;43.20
4002;DHT22;2015;48.670;9.060;2022-07-17T11:24:48;33.80;45.90
4002;DHT22;2015;48.670;9.060;2022-07-17T11:27:23;33.70;45.40
4002;DHT22;2015;48.670;9.060;2022-07-17T11:29:57;33.40;47.70
4002;DHT22;2015;48.670;9.060;2022-07-17T11:32:37;33.10;47.10
4002;DHT22;2015;48.670;9.060;2022-07-17T11:35:19;32.70;46.10
4002;DHT22;2015;48.670;9.060;2022-07-17T11:38:12;31.70;44.40
4002;DHT22;2015;48.670;9.060;2022-07-17T11:40:46;30.90;46.30
4002;DHT22;2015;48.670;9.060;2022-07-17T11:43:18;30.40;46.70
4002;DHT22;2015;48.670;9.060;2022-07-17T11:45:50;29.90;48.50
4002;DHT22;2015;48.670;9.060;2022-07-17T11:48:22;29.50;47.80
4002;DHT22;2015;48.670;9.060;2022-07-17T11:50:55;29.30;49.20
4002;DHT22;2015;48.670;9.060;2022-07-17T11:53:34;28.90;49.80
4002;DHT22;2015;48.670;9.060;2022-07-17T11:56:07;28.60;50.30
4002;DHT22;2015;48.670;9.060;2022-07-17T11:58:46;28.50;51.10
4002;DHT22;2015;48.670;9.060;2022-07-17T12:01:18;28.20;52.30
4002;DHT22;2015;48.670;9.060;2022-07-17T12:03:57;28.10;51.20
4002;DHT22;2015;48.670;9.060;2022-07-17T12:06:29;28.00;52.70
4002;DHT22;2015;48.670;9.060;2022-07-17T12:09:02;28.10;52.10
4002;DHT22;2015;48.670;9.060;2022-07-17T12:11:50;28.00;51.40
4002;DHT22;2015;48.670;9.060;2022-07-17T12:14:22;27.70;52.20
4002;DHT22;2015;48.670;9.060;2022-07-17T12:16:56;27.60;52.20
4002;DHT22;2015;48.670;9.060;2022-07-17T12:19:33;27.60;52.00
4002;DHT22;2015;48.670;9.060;2022-07-17T12:22:05;27.40;51.50
4002;DHT22;2015;48.670;9.060;2022-07-17T12:24:42;27.40;50.00
4002;DHT22;2015;48.670;9.060;2022-07-17T12:27:15;27.40;49.00
4002;DHT22;2015;48.670;9.060;2022-07-17T12:29:47;27.30;49.50
4002;DHT22;2015;48.670;9.060;2022-07-17T12:32:19;27.40;49.90
4002;DHT22;2015;48.670;9.060;2022-07-17T12:34:51;27.30;50.30
4002;DHT22;2015;48.670;9.060;2022-07-17T12:37:31;27.30;51.10
4002;DHT22;2015;48.670;9.060;2022-07-17T12:40:04;27.30;49.30
4002;DHT22;2015;48.670;9.060;2022-07-17T12:42:36;27.40;49.20
4002;DHT22;2015;48.670;9.060;2022-07-17T12:45:08;27.50;48.60
4002;DHT22;2015;48.670;9.060;2022-07-17T12:47:40;27.60;49.60
4002;DHT22;2015;48.670;9.060;2022-07-17T12:50:12;27.70;48.80
4002;DHT22;2015;48.670;9.060;2022-07-17T12:52:44;27.70;48.10
4002;DHT22;2015;48.670;9.060;2022-07-17T12:55:16;27.70;47.30
4002;DHT22;2015;48.670;9.060;2022-07-17T12:57:48;27.70;47.40
4002;DHT22;2015;48.670;9.060;2022-07-17T13:00:20;27.70;49.00
4002;DHT22;2015;48.670;9.060;2022-07-17T13:02:52;27.60;50.60
4002;DHT22;2015;48.670;9.060;2022-07-17T13:05:32;27.60;50.00
4002;DHT22;2015;48.670;9.060;2022-07-17T13:08:04;27.60;51.90
4002;DHT22;2015;48.670;9.060;2022-07-17T13:10:36;27.40;51.40
4002;DHT22;2015;48.670;9.060;2022-07-17T13:13:08;27.20;51.60
4002;DHT22;2015;48.670;9.060;2022-07-17T13:15:41;27.10;52.20
4002;DHT22;2015;48.670;9.060;2022-07-17T13:18:13;27.20;51.00
4002;DHT22;2015;48.670;9.060;2022-07-17T13:20:44;27.40;52.30
4002;DHT22;2015;48.670;9.060;2022-07-17T13:23:17;27.20;51.20
4002;DHT22;2015;48.670;9.060;2022-07-17T13:25:49;27.20;51.40
4002;DHT22;2015;48.670;9.060;2022-07-17T13:28:21;27.40;52.20
4002;DHT22;2015;48.670;9.060;2022-07-17T13:30:53;27.40;51.50
4002;DHT22;2015;48.670;9.060;2022-07-17T13:33:25;27.30;52.60
4002;DHT22;2015;48.670;9.060;2022-07-17T13:35:57;27.30;51.70
4002;DHT22;2015;48.670;9.060;2022-07-17T13:38:29;27.40;52.60
4002;DHT22;2015;48.670;9.060;2022-07-17T13:41:01;27.50;53.30
4002;DHT22;2015;48.670;9.060;2022-07-17T13:43:33;27.40;52.60
4002;DHT22;2015;48.670;9.060;2022-07-17T13:46:06;27.40;51.90
4002;DHT22;2015;48.670;9.060;2022-07-17T13:48:37;27.40;50.70
4002;DHT22;2015;48.670;9.060;2022-07-17T13:51:09;27.40;51.60
4002;DHT22;2015;48.670;9.060;2022-07-17T13:53:43;27.50;50.60
4002;DHT22;2015;48.670;9.060;2022-07-17T13:56:14;27.50;50.90
4002;DHT22;2015;48.670;9.060;2022-07-17T13:58:47;27.30;50.30
4002;DHT22;2015;48.670;9.060;2022-07-17T14:01:19;27.10;50.30
4002;DHT22;2015;48.670;9.060;2022-07-17T14:03:54;27.10;51.10
4002;DHT22;2015;48.670;9.060;2022-07-17T14:06:25;26.90;50.40
4002;DHT22;2015;48.670;9.060;2022-07-17T14:08:57;27.00;51.80
4002;DHT22;2015;48.670;9.060;2022-07-17T14:11:29;27.10;51.30
4002;DHT22;2015;48.670;9.060;2022-07-17T14:14:01;27.10;51.80
4002;DHT22;2015;48.670;9.060;2022-07-17T14:16:33;26.90;51.80
4002;DHT22;2015;48.670;9.060;2022-07-17T14:19:05;26.90;52.30
4002;DHT22;2015;48.670;9.060;2022-07-17T14:21:37;26.80;52.00
4002;DHT22;2015;48.670;9.060;2022-07-17T14:24:09;26.90;52.00
4002;DHT22;2015;48.670;9.060;2022-07-17T14:26:42;26.90;50.30
4002;DHT22;2015;48.670;9.060;2022-07-17T14:29:15;27.00;51.10
4002;DHT22;2015;48.670;9.060;2022-07-17T14:31:47;27.00;50.60
4002;DHT22;2015;48.670;9.060;2022-07-17T14:34:19;26.90;50.30
4002;DHT22;2015;48.670;9.060;2022-07-17T14:36:51;26.90;52.20
4002;DHT22;2015;48.670;9.060;2022-07-17T14:39:23;26.80;50.70
4002;DHT22;2015;48.670;9.060;2022-07-17T14:41:55;27.00;50.70
4002;DHT22;2015;48.670;9.060;2022-07-17T14:44:27;27.10;50.70
4002;DHT22;2015;48.670;9.060;2022-07-17T14:46:58;27.00;51.90
4002;DHT22;2015;48.670;9.060;2022-07-17T14:49:30;26.90;51.30
4002;DHT22;2015;48.670;9.060;2022-07-17T14:52:02;26.80;50.60
4002;DHT22;2015;48.670;9.060;2022-07-17T14:54:34;26.80;49.70
4002;DHT22;2015;48.670;9.060;2022-07-17T14:57:06;26.80;49.40
4002;DHT22;2015;48.670;9.060;2022-07-17T14:59:38;26.80;50.00
4002;DHT22;2015;48.670;9.060;2022-07-17T15:02:10;26.70;51.30
4002;DHT22;2015;48.670;9.060;2022-07-17T15:04:42;26.60;51.90
4002;DHT22;2015;48.670;9.060;2022-07-17T15:07:13;26.50;50.90
4002;DHT22;2015;48.670;9.060;2022-07-17T15:09:45;26.60;50.80
4002;DHT22;2015;48.670;9.060;2022-07-17T15:12:17;26.50;51.30
4002;DHT22;2015;48.670;9.060;2022-07-17T15:14:49;26.40;52.20
4002;DHT22;2015;48.670;9.060;2022-07-17T15:17:23;26.40;52.50
4002;DHT22;2015;48.670;9.060;2022-07-17T15:19:55;26.40;52.40
4002;DHT22;2015;48.670;9.060;2022-07-17T15:22:27;26.30;52.80
4002;DHT22;2015;48.670;9.060;2022-07-17T15:24:59;26.30;53.40
4002;DHT22;2015;48.670;9.060;2022-07-17T15:27:31;26.20;52.40
4002;DHT22;2015;48.670;9.060;2022-07-17T15:30:04;26.30;51.00
4002;DHT22;2015;48.670;9.060;2022-07-17T15:32:36;26.30;52.30
4002;DHT22;2015;48.670;9.060;2022-07-17T15:35:09;26.20;51.70
4002;DHT22;2015;48.670;9.060;2022-07-17T15:37:42;26.40;51.70
4002;DHT22;2015;48.670;9.060;2022-07-17T15:40:14;26.40;50.20
4002;DHT22;2015;48.670;9.060;2022-07-17T15:42:46;26.40;50.10
4002;DHT22;2015;48.670;9.060;2022-07-17T15:45:18;26.50;51.20
4002;DHT22;2015;48.670;9.060;2022-07-17T15:47:53;26.40;51.10
4002;DHT22;2015;48.670;9.060;2022-07-17T15:50:26;26.20;51.00
4002;DHT22;2015;48.670;9.060;2022-07-17T15:52:58;26.10;51.10
4002;DHT22;2015;48.670;9.060;2022-07-17T15:55:30;26.00;51.60
4002;DHT22;2015;48.670;9.060;2022-07-17T15:58:02;26.00;50.50
4002;DHT22;2015;48.670;9.060;2022-07-17T16:00:34;26.00;50.00
4002;DHT22;2015;48.670;9.060;2022-07-17T16:03:06;26.00;48.10
4002;DHT22;2015;48.670;9.060;2022-07-17T16:05:38;25.90;48.50
4002;DHT22;2015;48.670;9.060;2022-07-17T16:08:10;25.90;49.20
4002;DHT22;2015;48.670;9.060;2022-07-17T16:10:42;25.80;50.40
4002;DHT22;2015;48.670;9.060;2022-07-17T16:13:14;25.80;50.40
4002;DHT22;2015;48.670;9.060;2022-07-17T16:15:46;25.80;49.80
4002;DHT22;2015;48.670;9.060;2022-07-17T16:18:17;25.80;49.60
4002;DHT22;2015;48.670;9.060;2022-07-17T16:20:50;25.90;51.70
4002;DHT22;2015;48.670;9.060;2022-07-17T16:23:21;25.90;50.60
4002;DHT22;2015;48.670;9.060;2022-07-17T16:25:55;26.00;49.50
4002;DHT22;2015;48.670;9.060;2022-07-17T16:28:26;25.90;50.10
4002;DHT22;2015;48.670;9.060;2022-07-17T16:30:58;25.80;51.30
4002;DHT22;2015;48.670;9.060;2022-07-17T16:33:30;25.80;49.90
4002;DHT22;2015;48.670;9.060;2022-07-17T16:36:09;25.70;50.80
4002;DHT22;2015;48.670;9.060;2022-07-17T16:38:41;25.70;50.80
4002;DHT22;2015;48.670;9.060;2022-07-17T16:41:14;25.60;51.00
4002;DHT22;2015;48.670;9.060;2022-07-17T16:43:45;25.60;50.40
4002;DHT22;2015;48.670;9.060;2022-07-17T16:46:17;25.50;49.40
4002;DHT22;2015;48.670;9.060;2022-07-17T16:48:49;25.60;49.60
4002;DHT22;2015;48.670;9.060;2022-07-17T16:51:21;25.60;50.20
4002;DHT22;2015;48.670;9.060;2022-07-17T16:53:56;25.50;50.90
4002;DHT22;2015;48.670;9.060;2022-07-17T16:56:28;25.50;53.20